sensor_id;sensor_type;location;lat;lon;timestamp;P1;durP1;ratioP1;P2;durP2;ratioP2
64641;SDS011;59936;51.490;5.436;2022-12-16T00:03:19;22.55;;;12.45;;
64641;SDS011;59936;51.490;5.436;2022-12-16T00:08:22;21.43;;;14.73;;
64641;SDS011;59936;51.490;5.436;2022-12-16T00:13:25;13.80;;;10.15;;
64641;SDS011;59936;51.490;5.436;2022-12-16T00:18:29;15.07;;;11.90;;
64641;SDS011;59936;51.490;5.436;2022-12-16T00:23:31;20.27;;;13.18;;
64641;SDS011;59936;51.490;5.436;2022-12-16T00:28:36;17.75;;;12.38;;
64641;SDS011;59936;51.490;5.436;2022-12-16T00:33:39;18.20;;;13.35;;
64641;SDS011;59936;51.490;5.436;2022-12-16T00:43:45;10.35;;;8.52;;
64641;SDS011;59936;51.490;5.436;2022-12-16T00:48:47;12.45;;;11.05;;
64641;SDS011;59936;51.490;5.436;2022-12-16T00:53:49;21.47;;;12.50;;
64641;SDS011;59936;51.490;5.436;2022-12-16T00:58:52;16.77;;;11.30;;
64641;SDS011;59936;51.490;5.436;2022-12-16T01:03:54;23.58;;;13.90;;
64641;SDS011;59936;51.490;5.436;2022-12-16T01:08:57;13.80;;;10.23;;
64641;SDS011;59936;51.490;5.436;2022-12-16T01:14:01;17.07;;;13.20;;
64641;SDS011;59936;51.490;5.436;2022-12-16T01:19:03;15.80;;;13.52;;
64641;SDS011;59936;51.490;5.436;2022-12-16T01:24:05;16.92;;;12.95;;
64641;SDS011;59936;51.490;5.436;2022-12-16T01:34:11;17.58;;;11.18;;
64641;SDS011;59936;51.490;5.436;2022-12-16T01:39:13;19.27;;;12.05;;
64641;SDS011;59936;51.490;5.436;2022-12-16T01:44:18;16.97;;;11.87;;
64641;SDS011;59936;51.490;5.436;2022-12-16T01:49:23;24.80;;;12.38;;
64641;SDS011;59936;51.490;5.436;2022-12-16T01:54:34;26.13;;;14.75;;
64641;SDS011;59936;51.490;5.436;2022-12-16T01:59:41;16.25;;;12.35;;
64641;SDS011;59936;51.490;5.436;2022-12-16T02:04:50;15.48;;;12.00;;
64641;SDS011;59936;51.490;5.436;2022-12-16T02:10:09;19.67;;;11.70;;
64641;SDS011;59936;51.490;5.436;2022-12-16T02:15:15;17.23;;;12.93;;
64641;SDS011;59936;51.490;5.436;2022-12-16T02:26:37;16.15;;;12.23;;
64641;SDS011;59936;51.490;5.436;2022-12-16T02:32:24;20.25;;;11.75;;
64641;SDS011;59936;51.490;5.436;2022-12-16T02:37:36;17.92;;;12.52;;
64641;SDS011;59936;51.490;5.436;2022-12-16T02:42:46;20.85;;;14.63;;
64641;SDS011;59936;51.490;5.436;2022-12-16T02:47:56;21.63;;;13.65;;
64641;SDS011;59936;51.490;5.436;2022-12-16T02:52:58;17.20;;;12.50;;
64641;SDS011;59936;51.490;5.436;2022-12-16T02:58:06;15.25;;;11.48;;
64641;SDS011;59936;51.490;5.436;2022-12-16T03:03:18;18.80;;;12.68;;
64641;SDS011;59936;51.490;5.436;2022-12-16T03:08:29;21.88;;;15.95;;
64641;SDS011;59936;51.490;5.436;2022-12-16T03:13:38;21.38;;;13.70;;
64641;SDS011;59936;51.490;5.436;2022-12-16T03:18:47;15.60;;;12.40;;
64641;SDS011;59936;51.490;5.436;2022-12-16T03:23:56;24.23;;;12.57;;
64641;SDS011;59936;51.490;5.436;2022-12-16T03:29:04;18.58;;;13.50;;
64641;SDS011;59936;51.490;5.436;2022-12-16T03:34:13;24.70;;;12.80;;
64641;SDS011;59936;51.490;5.436;2022-12-16T03:39:32;23.58;;;14.05;;
64641;SDS011;59936;51.490;5.436;2022-12-16T03:44:40;23.02;;;14.20;;
64641;SDS011;59936;51.490;5.436;2022-12-16T03:49:45;22.63;;;15.75;;
64641;SDS011;59936;51.490;5.436;2022-12-16T03:54:46;29.52;;;16.90;;
64641;SDS011;59936;51.490;5.436;2022-12-16T03:59:48;21.60;;;15.37;;
64641;SDS011;59936;51.490;5.436;2022-12-16T04:04:51;35.67;;;15.57;;
64641;SDS011;59936;51.490;5.436;2022-12-16T04:09:53;25.83;;;17.40;;
64641;SDS011;59936;51.490;5.436;2022-12-16T04:14:54;27.97;;;19.20;;
64641;SDS011;59936;51.490;5.436;2022-12-16T04:20:15;24.02;;;18.15;;
64641;SDS011;59936;51.490;5.436;2022-12-16T04:25:36;46.42;;;17.63;;
64641;SDS011;59936;51.490;5.436;2022-12-16T04:30:39;31.77;;;21.45;;
64641;SDS011;59936;51.490;5.436;2022-12-16T04:35:43;38.45;;;20.08;;
64641;SDS011;59936;51.490;5.436;2022-12-16T04:41:04;43.50;;;21.33;;
64641;SDS011;59936;51.490;5.436;2022-12-16T04:46:23;28.10;;;19.73;;
64641;SDS011;59936;51.490;5.436;2022-12-16T04:51:44;34.13;;;19.50;;
64641;SDS011;59936;51.490;5.436;2022-12-16T04:57:03;35.20;;;20.35;;
64641;SDS011;59936;51.490;5.436;2022-12-16T05:02:24;39.28;;;19.60;;
64641;SDS011;59936;51.490;5.436;2022-12-16T05:07:59;42.67;;;21.05;;
64641;SDS011;59936;51.490;5.436;2022-12-16T05:13:18;27.42;;;20.63;;
64641;SDS011;59936;51.490;5.436;2022-12-16T05:18:39;30.42;;;17.25;;
64641;SDS011;59936;51.490;5.436;2022-12-16T05:23:59;39.47;;;19.58;;
64641;SDS011;59936;51.490;5.436;2022-12-16T05:29:20;30.65;;;19.65;;
64641;SDS011;59936;51.490;5.436;2022-12-16T05:34:38;35.97;;;24.17;;
64641;SDS011;59936;51.490;5.436;2022-12-16T05:39:59;40.90;;;20.20;;
64641;SDS011;59936;51.490;5.436;2022-12-16T05:45:18;27.40;;;18.73;;
64641;SDS011;59936;51.490;5.436;2022-12-16T05:50:38;36.50;;;17.85;;
64641;SDS011;59936;51.490;5.436;2022-12-16T05:55:59;24.67;;;16.85;;
64641;SDS011;59936;51.490;5.436;2022-12-16T06:01:18;24.83;;;18.40;;
64641;SDS011;59936;51.490;5.436;2022-12-16T06:06:37;22.25;;;16.80;;
64641;SDS011;59936;51.490;5.436;2022-12-16T06:11:58;26.50;;;16.17;;
64641;SDS011;59936;51.490;5.436;2022-12-16T06:17:17;29.70;;;20.02;;
64641;SDS011;59936;51.490;5.436;2022-12-16T06:22:37;45.55;;;26.40;;
64641;SDS011;59936;51.490;5.436;2022-12-16T06:27:59;29.80;;;21.27;;
64641;SDS011;59936;51.490;5.436;2022-12-16T06:33:18;43.40;;;24.23;;
64641;SDS011;59936;51.490;5.436;2022-12-16T06:38:38;29.38;;;19.85;;
64641;SDS011;59936;51.490;5.436;2022-12-16T06:43:59;30.67;;;18.92;;
64641;SDS011;59936;51.490;5.436;2022-12-16T06:49:20;35.58;;;22.40;;
64641;SDS011;59936;51.490;5.436;2022-12-16T06:54:39;28.77;;;21.10;;
64641;SDS011;59936;51.490;5.436;2022-12-16T07:00:01;28.58;;;20.15;;
64641;SDS011;59936;51.490;5.436;2022-12-16T07:05:22;24.88;;;19.35;;
64641;SDS011;59936;51.490;5.436;2022-12-16T07:10:42;30.55;;;18.15;;
64641;SDS011;59936;51.490;5.436;2022-12-16T07:16:08;27.02;;;19.25;;
64641;SDS011;59936;51.490;5.436;2022-12-16T07:21:27;35.85;;;19.52;;
64641;SDS011;59936;51.490;5.436;2022-12-16T07:26:46;39.25;;;19.73;;
64641;SDS011;59936;51.490;5.436;2022-12-16T07:32:07;28.20;;;18.98;;
64641;SDS011;59936;51.490;5.436;2022-12-16T07:37:26;27.58;;;20.42;;
64641;SDS011;59936;51.490;5.436;2022-12-16T07:42:47;43.67;;;26.40;;
64641;SDS011;59936;51.490;5.436;2022-12-16T07:48:08;24.45;;;14.48;;
64641;SDS011;59936;51.490;5.436;2022-12-16T07:53:28;33.80;;;21.73;;
64641;SDS011;59936;51.490;5.436;2022-12-16T07:58:47;15.60;;;13.07;;
64641;SDS011;59936;51.490;5.436;2022-12-16T08:04:08;26.40;;;16.17;;
64641;SDS011;59936;51.490;5.436;2022-12-16T08:09:27;26.92;;;16.05;;
64641;SDS011;59936;51.490;5.436;2022-12-16T08:14:47;47.03;;;12.68;;
64641;SDS011;59936;51.490;5.436;2022-12-16T08:20:09;35.25;;;16.80;;
64641;SDS011;59936;51.490;5.436;2022-12-16T08:25:28;35.22;;;17.15;;
64641;SDS011;59936;51.490;5.436;2022-12-16T08:30:48;49.53;;;19.88;;
64641;SDS011;59936;51.490;5.436;2022-12-16T08:36:09;29.40;;;19.38;;
64641;SDS011;59936;51.490;5.436;2022-12-16T08:41:29;51.10;;;17.92;;
64641;SDS011;59936;51.490;5.436;2022-12-16T08:46:48;60.70;;;17.98;;
64641;SDS011;59936;51.490;5.436;2022-12-16T08:52:10;86.63;;;18.88;;
64641;SDS011;59936;51.490;5.436;2022-12-16T08:57:29;31.67;;;16.88;;
64641;SDS011;59936;51.490;5.436;2022-12-16T09:02:51;79.28;;;17.95;;
64641;SDS011;59936;51.490;5.436;2022-12-16T09:08:13;172.98;;;20.85;;
64641;SDS011;59936;51.490;5.436;2022-12-16T09:13:34;117.70;;;21.25;;
64641;SDS011;59936;51.490;5.436;2022-12-16T09:18:53;74.43;;;18.33;;
64641;SDS011;59936;51.490;5.436;2022-12-16T09:24:15;63.70;;;19.73;;
64641;SDS011;59936;51.490;5.436;2022-12-16T09:29:34;67.50;;;16.60;;
64641;SDS011;59936;51.490;5.436;2022-12-16T09:34:55;50.97;;;16.42;;
64641;SDS011;59936;51.490;5.436;2022-12-16T09:40:16;23.23;;;15.60;;
64641;SDS011;59936;51.490;5.436;2022-12-16T09:45:38;84.28;;;20.40;;
64641;SDS011;59936;51.490;5.436;2022-12-16T09:51:11;77.00;;;21.20;;
64641;SDS011;59936;51.490;5.436;2022-12-16T09:56:33;45.40;;;14.55;;
64641;SDS011;59936;51.490;5.436;2022-12-16T10:01:54;19.67;;;15.98;;
64641;SDS011;59936;51.490;5.436;2022-12-16T10:07:12;35.95;;;18.05;;
64641;SDS011;59936;51.490;5.436;2022-12-16T10:12:42;29.58;;;17.23;;
64641;SDS011;59936;51.490;5.436;2022-12-16T10:18:14;58.58;;;18.48;;
64641;SDS011;59936;51.490;5.436;2022-12-16T10:23:49;24.38;;;15.95;;
64641;SDS011;59936;51.490;5.436;2022-12-16T10:29:24;28.45;;;16.25;;
64641;SDS011;59936;51.490;5.436;2022-12-16T10:34:48;23.23;;;17.60;;
64641;SDS011;59936;51.490;5.436;2022-12-16T10:40:12;19.63;;;14.45;;
64641;SDS011;59936;51.490;5.436;2022-12-16T10:45:39;20.38;;;15.05;;
64641;SDS011;59936;51.490;5.436;2022-12-16T10:51:04;17.13;;;15.18;;
64641;SDS011;59936;51.490;5.436;2022-12-16T10:56:36;21.90;;;15.30;;
64641;SDS011;59936;51.490;5.436;2022-12-16T11:02:17;25.77;;;14.52;;
64641;SDS011;59936;51.490;5.436;2022-12-16T11:07:49;23.63;;;17.67;;
64641;SDS011;59936;51.490;5.436;2022-12-16T11:13:14;30.35;;;19.00;;
64641;SDS011;59936;51.490;5.436;2022-12-16T11:18:39;40.40;;;15.32;;
64641;SDS011;59936;51.490;5.436;2022-12-16T11:24:11;22.42;;;15.60;;
64641;SDS011;59936;51.490;5.436;2022-12-16T11:29:33;23.00;;;16.85;;
64641;SDS011;59936;51.490;5.436;2022-12-16T11:35:11;20.83;;;16.27;;
64641;SDS011;59936;51.490;5.436;2022-12-16T11:40:35;33.55;;;20.30;;
64641;SDS011;59936;51.490;5.436;2022-12-16T11:45:55;24.95;;;17.63;;
64641;SDS011;59936;51.490;5.436;2022-12-16T11:51:20;14.90;;;13.32;;
64641;SDS011;59936;51.490;5.436;2022-12-16T11:56:43;21.98;;;15.75;;
64641;SDS011;59936;51.490;5.436;2022-12-16T12:02:07;30.67;;;20.70;;
64641;SDS011;59936;51.490;5.436;2022-12-16T12:07:39;29.35;;;20.08;;
64641;SDS011;59936;51.490;5.436;2022-12-16T12:19:11;19.10;;;14.98;;
64641;SDS011;59936;51.490;5.436;2022-12-16T12:24:40;21.45;;;16.50;;
64641;SDS011;59936;51.490;5.436;2022-12-16T12:30:17;17.25;;;13.77;;
64641;SDS011;59936;51.490;5.436;2022-12-16T12:35:43;21.13;;;16.25;;
64641;SDS011;59936;51.490;5.436;2022-12-16T12:41:21;19.65;;;14.75;;
64641;SDS011;59936;51.490;5.436;2022-12-16T12:46:48;17.23;;;14.40;;
64641;SDS011;59936;51.490;5.436;2022-12-16T12:52:19;18.02;;;14.85;;
64641;SDS011;59936;51.490;5.436;2022-12-16T12:58:04;17.42;;;13.13;;
64641;SDS011;59936;51.490;5.436;2022-12-16T13:03:37;19.25;;;12.88;;
64641;SDS011;59936;51.490;5.436;2022-12-16T13:14:54;14.80;;;12.15;;
64641;SDS011;59936;51.490;5.436;2022-12-16T13:20:37;20.10;;;12.30;;
64641;SDS011;59936;51.490;5.436;2022-12-16T13:26:00;18.45;;;13.30;;
64641;SDS011;59936;51.490;5.436;2022-12-16T13:31:24;21.77;;;11.82;;
64641;SDS011;59936;51.490;5.436;2022-12-16T13:36:54;11.65;;;8.52;;
64641;SDS011;59936;51.490;5.436;2022-12-16T13:48:29;11.25;;;9.35;;
64641;SDS011;59936;51.490;5.436;2022-12-16T13:53:55;14.48;;;10.15;;
64641;SDS011;59936;51.490;5.436;2022-12-16T13:59:20;13.98;;;10.68;;
64641;SDS011;59936;51.490;5.436;2022-12-16T14:04:45;12.82;;;11.20;;
64641;SDS011;59936;51.490;5.436;2022-12-16T14:10:21;13.98;;;11.00;;
64641;SDS011;59936;51.490;5.436;2022-12-16T14:15:46;18.83;;;12.35;;
64641;SDS011;59936;51.490;5.436;2022-12-16T14:21:19;15.30;;;11.25;;
64641;SDS011;59936;51.490;5.436;2022-12-16T14:26:51;16.48;;;10.45;;
64641;SDS011;59936;51.490;5.436;2022-12-16T14:32:23;18.63;;;11.57;;
64641;SDS011;59936;51.490;5.436;2022-12-16T14:37:48;17.15;;;12.25;;
64641;SDS011;59936;51.490;5.436;2022-12-16T14:43:09;14.63;;;12.00;;
64641;SDS011;59936;51.490;5.436;2022-12-16T14:48:34;14.23;;;10.43;;
64641;SDS011;59936;51.490;5.436;2022-12-16T14:54:10;20.70;;;12.88;;
64641;SDS011;59936;51.490;5.436;2022-12-16T14:59:35;18.25;;;12.43;;
64641;SDS011;59936;51.490;5.436;2022-12-16T15:04:55;18.42;;;13.10;;
64641;SDS011;59936;51.490;5.436;2022-12-16T15:10:17;17.85;;;12.90;;
64641;SDS011;59936;51.490;5.436;2022-12-16T15:15:42;12.23;;;10.35;;
64641;SDS011;59936;51.490;5.436;2022-12-16T15:21:06;15.30;;;11.13;;
64641;SDS011;59936;51.490;5.436;2022-12-16T15:26:29;15.18;;;10.95;;
64641;SDS011;59936;51.490;5.436;2022-12-16T15:31:51;15.82;;;10.98;;
64641;SDS011;59936;51.490;5.436;2022-12-16T15:37:17;14.68;;;12.00;;
64641;SDS011;59936;51.490;5.436;2022-12-16T15:42:46;15.05;;;11.98;;
64641;SDS011;59936;51.490;5.436;2022-12-16T15:48:10;21.33;;;12.82;;
64641;SDS011;59936;51.490;5.436;2022-12-16T15:53:36;18.20;;;12.10;;
64641;SDS011;59936;51.490;5.436;2022-12-16T16:04:26;18.75;;;12.80;;
64641;SDS011;59936;51.490;5.436;2022-12-16T16:09:47;20.85;;;14.27;;
64641;SDS011;59936;51.490;5.436;2022-12-16T16:15:08;16.35;;;13.25;;
64641;SDS011;59936;51.490;5.436;2022-12-16T16:20:32;18.85;;;13.27;;
64641;SDS011;59936;51.490;5.436;2022-12-16T16:26:02;21.00;;;12.13;;
64641;SDS011;59936;51.490;5.436;2022-12-16T16:31:23;16.15;;;11.88;;
64641;SDS011;59936;51.490;5.436;2022-12-16T16:36:44;15.50;;;11.18;;
64641;SDS011;59936;51.490;5.436;2022-12-16T16:42:07;14.35;;;11.85;;
64641;SDS011;59936;51.490;5.436;2022-12-16T16:47:27;14.48;;;12.05;;
64641;SDS011;59936;51.490;5.436;2022-12-16T16:52:49;17.92;;;12.35;;
64641;SDS011;59936;51.490;5.436;2022-12-16T16:58:09;15.30;;;12.77;;
64641;SDS011;59936;51.490;5.436;2022-12-16T17:03:32;14.48;;;11.75;;
64641;SDS011;59936;51.490;5.436;2022-12-16T17:09:08;13.75;;;11.95;;
64641;SDS011;59936;51.490;5.436;2022-12-16T17:14:27;17.02;;;11.52;;
64641;SDS011;59936;51.490;5.436;2022-12-16T17:19:46;16.77;;;11.48;;
64641;SDS011;59936;51.490;5.436;2022-12-16T17:25:07;15.45;;;12.43;;
64641;SDS011;59936;51.490;5.436;2022-12-16T17:30:27;17.20;;;13.30;;
64641;SDS011;59936;51.490;5.436;2022-12-16T17:35:48;17.65;;;11.70;;
64641;SDS011;59936;51.490;5.436;2022-12-16T17:41:09;23.60;;;13.10;;
64641;SDS011;59936;51.490;5.436;2022-12-16T17:46:29;22.25;;;14.70;;
64641;SDS011;59936;51.490;5.436;2022-12-16T17:51:50;24.88;;;15.38;;
64641;SDS011;59936;51.490;5.436;2022-12-16T18:02:33;15.75;;;12.02;;
64641;SDS011;59936;51.490;5.436;2022-12-16T18:08:00;29.13;;;13.32;;
64641;SDS011;59936;51.490;5.436;2022-12-16T18:13:21;25.85;;;15.27;;
64641;SDS011;59936;51.490;5.436;2022-12-16T18:18:40;20.52;;;15.00;;
64641;SDS011;59936;51.490;5.436;2022-12-16T18:24:04;18.67;;;14.60;;
64641;SDS011;59936;51.490;5.436;2022-12-16T18:29:25;33.20;;;15.85;;
64641;SDS011;59936;51.490;5.436;2022-12-16T18:34:46;20.77;;;15.57;;
64641;SDS011;59936;51.490;5.436;2022-12-16T18:40:06;27.80;;;15.77;;
64641;SDS011;59936;51.490;5.436;2022-12-16T18:45:29;22.55;;;16.02;;
64641;SDS011;59936;51.490;5.436;2022-12-16T18:50:52;18.00;;;14.70;;
64641;SDS011;59936;51.490;5.436;2022-12-16T18:56:13;24.45;;;16.27;;
64641;SDS011;59936;51.490;5.436;2022-12-16T19:01:34;19.45;;;14.60;;
64641;SDS011;59936;51.490;5.436;2022-12-16T19:06:54;23.90;;;15.02;;
64641;SDS011;59936;51.490;5.436;2022-12-16T19:12:22;22.63;;;15.52;;
64641;SDS011;59936;51.490;5.436;2022-12-16T19:17:42;25.00;;;17.20;;
64641;SDS011;59936;51.490;5.436;2022-12-16T19:23:02;25.55;;;16.83;;
64641;SDS011;59936;51.490;5.436;2022-12-16T19:28:22;23.20;;;15.52;;
64641;SDS011;59936;51.490;5.436;2022-12-16T19:33:43;20.90;;;15.65;;
64641;SDS011;59936;51.490;5.436;2022-12-16T19:39:04;23.83;;;15.82;;
64641;SDS011;59936;51.490;5.436;2022-12-16T19:44:23;22.42;;;14.45;;
64641;SDS011;59936;51.490;5.436;2022-12-16T19:49:44;22.30;;;16.27;;
64641;SDS011;59936;51.490;5.436;2022-12-16T19:55:04;21.40;;;16.13;;
64641;SDS011;59936;51.490;5.436;2022-12-16T20:00:24;19.65;;;15.70;;
64641;SDS011;59936;51.490;5.436;2022-12-16T20:05:45;21.20;;;14.45;;
64641;SDS011;59936;51.490;5.436;2022-12-16T20:11:05;22.85;;;14.32;;
64641;SDS011;59936;51.490;5.436;2022-12-16T20:16:26;18.98;;;14.27;;
64641;SDS011;59936;51.490;5.436;2022-12-16T20:21:46;29.38;;;15.65;;
64641;SDS011;59936;51.490;5.436;2022-12-16T20:27:07;19.52;;;14.88;;
64641;SDS011;59936;51.490;5.436;2022-12-16T20:32:26;24.83;;;14.73;;
64641;SDS011;59936;51.490;5.436;2022-12-16T20:37:48;24.65;;;17.00;;
64641;SDS011;59936;51.490;5.436;2022-12-16T20:43:07;23.63;;;17.98;;
64641;SDS011;59936;51.490;5.436;2022-12-16T20:48:28;30.42;;;17.02;;
64641;SDS011;59936;51.490;5.436;2022-12-16T20:53:49;24.52;;;17.65;;
64641;SDS011;59936;51.490;5.436;2022-12-16T20:59:10;20.33;;;15.73;;
64641;SDS011;59936;51.490;5.436;2022-12-16T21:04:29;24.80;;;16.08;;
64641;SDS011;59936;51.490;5.436;2022-12-16T21:09:50;24.17;;;16.60;;
64641;SDS011;59936;51.490;5.436;2022-12-16T21:15:09;26.15;;;17.77;;
64641;SDS011;59936;51.490;5.436;2022-12-16T21:20:28;24.65;;;17.15;;
64641;SDS011;59936;51.490;5.436;2022-12-16T21:25:49;30.05;;;18.85;;
64641;SDS011;59936;51.490;5.436;2022-12-16T21:31:10;21.92;;;16.10;;
64641;SDS011;59936;51.490;5.436;2022-12-16T21:36:29;24.42;;;16.27;;
64641;SDS011;59936;51.490;5.436;2022-12-16T21:41:49;19.05;;;15.32;;
64641;SDS011;59936;51.490;5.436;2022-12-16T21:47:10;21.70;;;16.10;;
64641;SDS011;59936;51.490;5.436;2022-12-16T21:52:29;27.30;;;16.55;;
64641;SDS011;59936;51.490;5.436;2022-12-16T21:58:01;22.10;;;15.07;;
64641;SDS011;59936;51.490;5.436;2022-12-16T22:03:20;21.63;;;14.48;;
64641;SDS011;59936;51.490;5.436;2022-12-16T22:08:41;22.00;;;15.82;;
64641;SDS011;59936;51.490;5.436;2022-12-16T22:14:02;19.02;;;13.20;;
64641;SDS011;59936;51.490;5.436;2022-12-16T22:19:23;23.38;;;15.98;;
64641;SDS011;59936;51.490;5.436;2022-12-16T22:24:42;23.55;;;16.27;;
64641;SDS011;59936;51.490;5.436;2022-12-16T22:30:03;27.20;;;16.27;;
64641;SDS011;59936;51.490;5.436;2022-12-16T22:35:24;21.40;;;15.27;;
64641;SDS011;59936;51.490;5.436;2022-12-16T22:40:52;20.20;;;16.10;;
64641;SDS011;59936;51.490;5.436;2022-12-16T22:46:13;28.58;;;17.92;;
64641;SDS011;59936;51.490;5.436;2022-12-16T22:51:34;30.55;;;15.50;;
64641;SDS011;59936;51.490;5.436;2022-12-16T22:56:54;27.70;;;16.08;;
64641;SDS011;59936;51.490;5.436;2022-12-16T23:02:15;24.70;;;17.60;;
64641;SDS011;59936;51.490;5.436;2022-12-16T23:07:35;30.92;;;18.25;;
64641;SDS011;59936;51.490;5.436;2022-12-16T23:12:54;29.45;;;18.60;;
64641;SDS011;59936;51.490;5.436;2022-12-16T23:18:15;31.48;;;18.90;;
64641;SDS011;59936;51.490;5.436;2022-12-16T23:23:34;25.60;;;16.90;;
64641;SDS011;59936;51.490;5.436;2022-12-16T23:28:55;27.30;;;17.35;;
64641;SDS011;59936;51.490;5.436;2022-12-16T23:34:16;28.65;;;17.63;;
64641;SDS011;59936;51.490;5.436;2022-12-16T23:39:37;22.00;;;15.50;;
64641;SDS011;59936;51.490;5.436;2022-12-16T23:44:56;26.17;;;16.30;;
64641;SDS011;59936;51.490;5.436;2022-12-16T23:50:17;36.10;;;20.95;;
64641;SDS011;59936;51.490;5.436;2022-12-16T23:55:36;30.33;;;21.40;;
